Terminal Aerodrome Forecast
Issued by NWS King Salmon, AK

Home | Current Version | Previous Version | Text Only | Print | Product List | Glossary On
Versions: 1 2 3 4 5 6 7 8 9 10 11 12 13 14 15 16 17 18 19 20 21
000
FTAK31 PANC 191359 AAA
TAFAKN
TAF AMD
PAKN 191359Z 1914/2012 09005KT P6SM SCT004
      TEMPO 1914/1916 BKN004
     FM191700 12005KT P6SM BKN100
     FM200600 18007KT 3SM -RASN SCT015 OVC025=

USA.gov is the U.S. government's official web portal to all federal, state and local government web resources and services.